sensor_id;sensor_type;location;lat;lon;timestamp;temperature;humidity
7366;DHT22;3723;52.220;8.792;2022-09-03T00:00:09;14.10;39.40
7366;DHT22;3723;52.220;8.792;2022-09-03T00:02:42;14.00;40.80
7366;DHT22;3723;52.220;8.792;2022-09-03T00:05:17;13.80;40.80
7366;DHT22;3723;52.220;8.792;2022-09-03T00:07:53;13.70;41.40
7366;DHT22;3723;52.220;8.792;2022-09-03T00:10:28;13.70;42.90
7366;DHT22;3723;52.220;8.792;2022-09-03T00:12:59;13.60;43.00
7366;DHT22;3723;52.220;8.792;2022-09-03T00:15:29;13.50;44.90
7366;DHT22;3723;52.220;8.792;2022-09-03T00:18:03;13.50;44.00
7366;DHT22;3723;52.220;8.792;2022-09-03T00:20:36;13.40;45.80
7366;DHT22;3723;52.220;8.792;2022-09-03T00:23:07;13.40;47.60
7366;DHT22;3723;52.220;8.792;2022-09-03T00:25:39;13.30;47.70
7366;DHT22;3723;52.220;8.792;2022-09-03T00:28:13;13.10;49.90
7366;DHT22;3723;52.220;8.792;2022-09-03T00:30:41;13.00;50.40
7366;DHT22;3723;52.220;8.792;2022-09-03T00:33:14;12.90;52.10
7366;DHT22;3723;52.220;8.792;2022-09-03T00:35:47;12.70;56.50
7366;DHT22;3723;52.220;8.792;2022-09-03T00:38:17;12.70;72.90
7366;DHT22;3723;52.220;8.792;2022-09-03T00:40:54;12.70;62.30
7366;DHT22;3723;52.220;8.792;2022-09-03T00:43:32;12.60;66.80
7366;DHT22;3723;52.220;8.792;2022-09-03T00:46:07;12.50;67.90
7366;DHT22;3723;52.220;8.792;2022-09-03T00:48:59;12.40;72.00
7366;DHT22;3723;52.220;8.792;2022-09-03T00:51:34;12.30;75.30
7366;DHT22;3723;52.220;8.792;2022-09-03T00:54:07;12.30;80.40
7366;DHT22;3723;52.220;8.792;2022-09-03T00:56:43;12.20;83.40
7366;DHT22;3723;52.220;8.792;2022-09-03T00:59:20;12.10;87.80
7366;DHT22;3723;52.220;8.792;2022-09-03T01:02:00;12.00;90.70
7366;DHT22;3723;52.220;8.792;2022-09-03T01:04:42;12.00;93.90
7366;DHT22;3723;52.220;8.792;2022-09-03T01:07:21;12.00;95.60
7366;DHT22;3723;52.220;8.792;2022-09-03T01:09:52;11.90;97.00
7366;DHT22;3723;52.220;8.792;2022-09-03T01:12:32;11.80;96.50
7366;DHT22;3723;52.220;8.792;2022-09-03T01:15:08;11.80;98.60
7366;DHT22;3723;52.220;8.792;2022-09-03T01:17:45;11.70;99.90
7366;DHT22;3723;52.220;8.792;2022-09-03T01:20:26;11.70;99.90
7366;DHT22;3723;52.220;8.792;2022-09-03T01:26:09;11.60;99.90
7366;DHT22;3723;52.220;8.792;2022-09-03T01:28:51;11.70;99.90
7366;DHT22;3723;52.220;8.792;2022-09-03T01:31:29;11.70;99.90
7366;DHT22;3723;52.220;8.792;2022-09-03T01:34:09;11.70;99.90
7366;DHT22;3723;52.220;8.792;2022-09-03T01:36:45;11.70;99.90
7366;DHT22;3723;52.220;8.792;2022-09-03T01:39:20;11.80;99.90
7366;DHT22;3723;52.220;8.792;2022-09-03T01:41:58;11.80;99.90
7366;DHT22;3723;52.220;8.792;2022-09-03T01:50:02;11.90;99.00
7366;DHT22;3723;52.220;8.792;2022-09-03T01:52:39;11.90;99.90
7366;DHT22;3723;52.220;8.792;2022-09-03T01:55:18;11.90;99.90
7366;DHT22;3723;52.220;8.792;2022-09-03T01:57:52;11.80;99.90
7366;DHT22;3723;52.220;8.792;2022-09-03T02:00:25;11.90;99.90
7366;DHT22;3723;52.220;8.792;2022-09-03T02:02:54;11.90;99.90
7366;DHT22;3723;52.220;8.792;2022-09-03T02:05:24;11.90;99.20
7366;DHT22;3723;52.220;8.792;2022-09-03T02:07:58;11.80;99.90
7366;DHT22;3723;52.220;8.792;2022-09-03T02:10:28;11.80;99.10
7366;DHT22;3723;52.220;8.792;2022-09-03T02:13:00;11.80;99.90
7366;DHT22;3723;52.220;8.792;2022-09-03T02:15:29;11.80;99.90
7366;DHT22;3723;52.220;8.792;2022-09-03T02:18:01;11.80;99.90
7366;DHT22;3723;52.220;8.792;2022-09-03T02:20:29;11.80;99.90
7366;DHT22;3723;52.220;8.792;2022-09-03T02:22:58;12.00;99.30
7366;DHT22;3723;52.220;8.792;2022-09-03T02:25:29;12.00;97.90
7366;DHT22;3723;52.220;8.792;2022-09-03T02:27:59;12.00;96.00
7366;DHT22;3723;52.220;8.792;2022-09-03T02:30:26;12.10;95.70
7366;DHT22;3723;52.220;8.792;2022-09-03T02:32:55;12.00;95.20
7366;DHT22;3723;52.220;8.792;2022-09-03T02:35:22;12.00;95.10
7366;DHT22;3723;52.220;8.792;2022-09-03T02:37:51;12.00;95.20
7366;DHT22;3723;52.220;8.792;2022-09-03T02:40:18;12.00;94.30
7366;DHT22;3723;52.220;8.792;2022-09-03T02:42:46;12.00;93.60
7366;DHT22;3723;52.220;8.792;2022-09-03T02:45:19;12.00;94.10
7366;DHT22;3723;52.220;8.792;2022-09-03T02:47:52;12.00;93.80
7366;DHT22;3723;52.220;8.792;2022-09-03T02:50:22;12.10;93.00
7366;DHT22;3723;52.220;8.792;2022-09-03T02:52:49;12.00;93.80
7366;DHT22;3723;52.220;8.792;2022-09-03T02:55:16;12.00;93.60
7366;DHT22;3723;52.220;8.792;2022-09-03T02:57:44;12.00;93.80
7366;DHT22;3723;52.220;8.792;2022-09-03T03:00:12;12.10;93.20
7366;DHT22;3723;52.220;8.792;2022-09-03T03:02:39;12.10;91.20
7366;DHT22;3723;52.220;8.792;2022-09-03T03:05:06;12.10;91.50
7366;DHT22;3723;52.220;8.792;2022-09-03T03:07:37;12.10;90.60
7366;DHT22;3723;52.220;8.792;2022-09-03T03:10:06;12.10;90.70
7366;DHT22;3723;52.220;8.792;2022-09-03T03:12:33;12.00;90.90
7366;DHT22;3723;52.220;8.792;2022-09-03T03:14:59;12.00;97.90
7366;DHT22;3723;52.220;8.792;2022-09-03T03:17:27;12.00;91.30
7366;DHT22;3723;52.220;8.792;2022-09-03T03:19:53;12.00;91.40
7366;DHT22;3723;52.220;8.792;2022-09-03T03:22:22;12.00;91.70
7366;DHT22;3723;52.220;8.792;2022-09-03T03:24:50;12.00;91.00
7366;DHT22;3723;52.220;8.792;2022-09-03T03:27:17;11.90;91.70
7366;DHT22;3723;52.220;8.792;2022-09-03T03:29:44;11.90;91.70
7366;DHT22;3723;52.220;8.792;2022-09-03T03:32:11;11.90;91.50
7366;DHT22;3723;52.220;8.792;2022-09-03T03:34:38;11.90;93.00
7366;DHT22;3723;52.220;8.792;2022-09-03T03:37:05;11.90;92.90
7366;DHT22;3723;52.220;8.792;2022-09-03T03:39:31;11.90;91.80
7366;DHT22;3723;52.220;8.792;2022-09-03T03:42:00;12.00;91.30
7366;DHT22;3723;52.220;8.792;2022-09-03T03:44:27;12.10;90.90
7366;DHT22;3723;52.220;8.792;2022-09-03T03:46:54;12.10;89.30
7366;DHT22;3723;52.220;8.792;2022-09-03T03:49:21;12.10;89.90
7366;DHT22;3723;52.220;8.792;2022-09-03T03:51:48;12.10;88.90
7366;DHT22;3723;52.220;8.792;2022-09-03T03:54:14;12.00;89.40
7366;DHT22;3723;52.220;8.792;2022-09-03T03:56:41;12.10;89.10
7366;DHT22;3723;52.220;8.792;2022-09-03T03:59:10;12.00;90.00
7366;DHT22;3723;52.220;8.792;2022-09-03T04:01:37;12.00;90.70
7366;DHT22;3723;52.220;8.792;2022-09-03T04:04:03;11.90;91.10
7366;DHT22;3723;52.220;8.792;2022-09-03T04:06:30;11.90;91.50
7366;DHT22;3723;52.220;8.792;2022-09-03T04:08:57;12.00;91.40
7366;DHT22;3723;52.220;8.792;2022-09-03T04:11:25;12.00;91.90
7366;DHT22;3723;52.220;8.792;2022-09-03T04:13:52;12.00;91.70
7366;DHT22;3723;52.220;8.792;2022-09-03T04:16:21;12.00;91.70
7366;DHT22;3723;52.220;8.792;2022-09-03T04:18:49;11.90;91.20
7366;DHT22;3723;52.220;8.792;2022-09-03T04:21:17;11.90;91.70
7366;DHT22;3723;52.220;8.792;2022-09-03T04:23:45;11.90;91.80
7366;DHT22;3723;52.220;8.792;2022-09-03T04:26:14;11.90;91.80
7366;DHT22;3723;52.220;8.792;2022-09-03T04:28:41;11.90;92.10
7366;DHT22;3723;52.220;8.792;2022-09-03T04:31:11;11.90;91.90
7366;DHT22;3723;52.220;8.792;2022-09-03T04:33:39;11.90;92.40
7366;DHT22;3723;52.220;8.792;2022-09-03T04:36:08;11.90;92.70
7366;DHT22;3723;52.220;8.792;2022-09-03T04:38:37;11.90;92.40
7366;DHT22;3723;52.220;8.792;2022-09-03T04:41:05;12.00;92.60
7366;DHT22;3723;52.220;8.792;2022-09-03T04:43:32;11.90;92.20
7366;DHT22;3723;52.220;8.792;2022-09-03T04:46:00;12.00;92.20
7366;DHT22;3723;52.220;8.792;2022-09-03T04:48:29;12.00;91.80
7366;DHT22;3723;52.220;8.792;2022-09-03T04:51:04;12.00;91.80
7366;DHT22;3723;52.220;8.792;2022-09-03T04:53:32;12.00;91.50
7366;DHT22;3723;52.220;8.792;2022-09-03T04:55:59;12.00;91.30
7366;DHT22;3723;52.220;8.792;2022-09-03T04:58:26;12.00;91.80
7366;DHT22;3723;52.220;8.792;2022-09-03T05:00:53;12.00;92.00
7366;DHT22;3723;52.220;8.792;2022-09-03T05:03:20;12.10;91.50
7366;DHT22;3723;52.220;8.792;2022-09-03T05:05:52;12.20;91.00
7366;DHT22;3723;52.220;8.792;2022-09-03T05:08:20;12.20;90.30
7366;DHT22;3723;52.220;8.792;2022-09-03T05:10:47;12.30;90.40
7366;DHT22;3723;52.220;8.792;2022-09-03T05:13:14;12.30;90.20
7366;DHT22;3723;52.220;8.792;2022-09-03T05:15:42;12.60;90.50
7366;DHT22;3723;52.220;8.792;2022-09-03T05:18:09;13.00;90.00
7366;DHT22;3723;52.220;8.792;2022-09-03T05:20:36;13.50;86.30
7366;DHT22;3723;52.220;8.792;2022-09-03T05:23:03;14.10;83.00
7366;DHT22;3723;52.220;8.792;2022-09-03T05:25:33;14.50;80.60
7366;DHT22;3723;52.220;8.792;2022-09-03T05:28:02;15.00;78.20
7366;DHT22;3723;52.220;8.792;2022-09-03T05:30:29;15.40;77.10
7366;DHT22;3723;52.220;8.792;2022-09-03T05:32:56;15.80;76.70
7366;DHT22;3723;52.220;8.792;2022-09-03T05:35:23;16.20;77.20
7366;DHT22;3723;52.220;8.792;2022-09-03T05:37:53;16.70;76.40
7366;DHT22;3723;52.220;8.792;2022-09-03T05:40:21;16.90;75.70
7366;DHT22;3723;52.220;8.792;2022-09-03T05:42:55;17.30;75.40
7366;DHT22;3723;52.220;8.792;2022-09-03T05:45:24;17.70;75.00
7366;DHT22;3723;52.220;8.792;2022-09-03T05:47:52;17.90;74.50
7366;DHT22;3723;52.220;8.792;2022-09-03T05:50:19;18.30;74.10
7366;DHT22;3723;52.220;8.792;2022-09-03T05:52:46;18.70;74.10
7366;DHT22;3723;52.220;8.792;2022-09-03T05:55:13;18.90;74.00
7366;DHT22;3723;52.220;8.792;2022-09-03T05:57:40;19.20;73.60
7366;DHT22;3723;52.220;8.792;2022-09-03T06:00:10;19.40;73.80
7366;DHT22;3723;52.220;8.792;2022-09-03T06:02:37;19.70;74.30
7366;DHT22;3723;52.220;8.792;2022-09-03T06:05:04;19.90;72.30
7366;DHT22;3723;52.220;8.792;2022-09-03T06:07:32;20.10;71.60
7366;DHT22;3723;52.220;8.792;2022-09-03T06:09:59;20.20;70.30
7366;DHT22;3723;52.220;8.792;2022-09-03T06:12:26;20.20;68.90
7366;DHT22;3723;52.220;8.792;2022-09-03T06:14:52;20.30;66.90
7366;DHT22;3723;52.220;8.792;2022-09-03T06:17:22;20.30;65.10
7366;DHT22;3723;52.220;8.792;2022-09-03T06:19:49;20.40;65.50
7366;DHT22;3723;52.220;8.792;2022-09-03T06:22:16;20.80;66.40
7366;DHT22;3723;52.220;8.792;2022-09-03T06:24:43;21.10;67.30
7366;DHT22;3723;52.220;8.792;2022-09-03T06:27:10;21.30;66.00
7366;DHT22;3723;52.220;8.792;2022-09-03T06:29:36;21.40;65.60
7366;DHT22;3723;52.220;8.792;2022-09-03T06:32:04;21.70;65.60
7366;DHT22;3723;52.220;8.792;2022-09-03T06:34:32;21.70;65.00
7366;DHT22;3723;52.220;8.792;2022-09-03T06:36:59;21.70;62.10
7366;DHT22;3723;52.220;8.792;2022-09-03T06:39:26;21.70;61.20
7366;DHT22;3723;52.220;8.792;2022-09-03T06:41:53;21.90;60.90
7366;DHT22;3723;52.220;8.792;2022-09-03T06:44:22;22.00;61.50
7366;DHT22;3723;52.220;8.792;2022-09-03T06:46:49;22.30;61.00
7366;DHT22;3723;52.220;8.792;2022-09-03T06:49:18;22.60;61.70
7366;DHT22;3723;52.220;8.792;2022-09-03T06:51:47;22.70;61.20
7366;DHT22;3723;52.220;8.792;2022-09-03T06:54:14;22.80;60.10
7366;DHT22;3723;52.220;8.792;2022-09-03T06:56:41;22.80;58.60
7366;DHT22;3723;52.220;8.792;2022-09-03T06:59:09;22.80;57.70
7366;DHT22;3723;52.220;8.792;2022-09-03T07:01:38;22.70;55.90
7366;DHT22;3723;52.220;8.792;2022-09-03T07:04:06;22.60;54.60
7366;DHT22;3723;52.220;8.792;2022-09-03T07:06:36;22.80;55.20
7366;DHT22;3723;52.220;8.792;2022-09-03T07:09:17;23.10;55.60
7366;DHT22;3723;52.220;8.792;2022-09-03T07:11:44;23.20;55.00
7366;DHT22;3723;52.220;8.792;2022-09-03T07:14:18;23.30;54.10
7366;DHT22;3723;52.220;8.792;2022-09-03T07:16:47;23.50;54.70
7366;DHT22;3723;52.220;8.792;2022-09-03T07:19:14;23.50;53.50
7366;DHT22;3723;52.220;8.792;2022-09-03T07:21:51;23.50;52.50
7366;DHT22;3723;52.220;8.792;2022-09-03T07:24:19;23.50;52.30
7366;DHT22;3723;52.220;8.792;2022-09-03T07:26:46;23.60;51.50
7366;DHT22;3723;52.220;8.792;2022-09-03T07:29:14;23.90;52.40
7366;DHT22;3723;52.220;8.792;2022-09-03T07:31:44;24.10;52.00
7366;DHT22;3723;52.220;8.792;2022-09-03T07:34:12;24.20;51.80
7366;DHT22;3723;52.220;8.792;2022-09-03T07:36:42;24.20;51.10
7366;DHT22;3723;52.220;8.792;2022-09-03T07:39:12;24.40;52.00
7366;DHT22;3723;52.220;8.792;2022-09-03T07:41:41;24.70;51.90
7366;DHT22;3723;52.220;8.792;2022-09-03T07:44:10;24.70;51.40
7366;DHT22;3723;52.220;8.792;2022-09-03T07:46:37;24.70;50.60
7366;DHT22;3723;52.220;8.792;2022-09-03T07:49:05;24.70;49.90
7366;DHT22;3723;52.220;8.792;2022-09-03T07:51:33;24.80;49.20
7366;DHT22;3723;52.220;8.792;2022-09-03T07:54:02;24.90;48.90
7366;DHT22;3723;52.220;8.792;2022-09-03T07:56:30;24.90;47.60
7366;DHT22;3723;52.220;8.792;2022-09-03T07:58:58;24.70;46.50
7366;DHT22;3723;52.220;8.792;2022-09-03T08:01:31;24.80;46.50
7366;DHT22;3723;52.220;8.792;2022-09-03T08:03:59;24.80;45.40
7366;DHT22;3723;52.220;8.792;2022-09-03T08:06:28;25.10;46.30
7366;DHT22;3723;52.220;8.792;2022-09-03T08:08:56;25.10;46.00
7366;DHT22;3723;52.220;8.792;2022-09-03T08:11:25;25.20;45.20
7366;DHT22;3723;52.220;8.792;2022-09-03T08:13:54;25.40;45.40
7366;DHT22;3723;52.220;8.792;2022-09-03T08:16:33;25.60;45.70
7366;DHT22;3723;52.220;8.792;2022-09-03T08:19:01;25.90;46.70
7366;DHT22;3723;52.220;8.792;2022-09-03T08:21:28;25.90;45.70
7366;DHT22;3723;52.220;8.792;2022-09-03T08:23:57;25.80;44.40
7366;DHT22;3723;52.220;8.792;2022-09-03T08:26:28;25.80;44.10
7366;DHT22;3723;52.220;8.792;2022-09-03T08:28:57;25.70;42.30
7366;DHT22;3723;52.220;8.792;2022-09-03T08:31:29;25.80;42.50
7366;DHT22;3723;52.220;8.792;2022-09-03T08:33:59;25.90;42.50
7366;DHT22;3723;52.220;8.792;2022-09-03T08:36:35;26.20;42.60
7366;DHT22;3723;52.220;8.792;2022-09-03T08:39:04;26.00;41.30
7366;DHT22;3723;52.220;8.792;2022-09-03T08:41:42;26.00;40.90
7366;DHT22;3723;52.220;8.792;2022-09-03T08:44:21;25.90;39.10
7366;DHT22;3723;52.220;8.792;2022-09-03T08:46:53;26.00;39.10
7366;DHT22;3723;52.220;8.792;2022-09-03T08:49:28;25.90;37.90
7366;DHT22;3723;52.220;8.792;2022-09-03T08:52:01;25.60;35.60
7366;DHT22;3723;52.220;8.792;2022-09-03T08:54:32;25.30;33.40
7366;DHT22;3723;52.220;8.792;2022-09-03T08:57:15;25.40;33.30
7366;DHT22;3723;52.220;8.792;2022-09-03T08:59:45;25.70;34.90
7366;DHT22;3723;52.220;8.792;2022-09-03T09:02:23;25.70;34.80
7366;DHT22;3723;52.220;8.792;2022-09-03T09:05:04;25.90;34.80
7366;DHT22;3723;52.220;8.792;2022-09-03T09:07:40;26.20;36.40
7366;DHT22;3723;52.220;8.792;2022-09-03T09:10:13;26.40;39.60
7366;DHT22;3723;52.220;8.792;2022-09-03T09:13:07;26.50;37.10
7366;DHT22;3723;52.220;8.792;2022-09-03T09:15:49;26.50;36.50
7366;DHT22;3723;52.220;8.792;2022-09-03T09:18:26;26.60;35.80
7366;DHT22;3723;52.220;8.792;2022-09-03T09:21:05;26.60;35.10
7366;DHT22;3723;52.220;8.792;2022-09-03T09:23:37;26.70;35.60
7366;DHT22;3723;52.220;8.792;2022-09-03T09:26:09;26.90;35.40
7366;DHT22;3723;52.220;8.792;2022-09-03T09:28:38;26.90;35.20
7366;DHT22;3723;52.220;8.792;2022-09-03T09:31:06;26.90;35.10
7366;DHT22;3723;52.220;8.792;2022-09-03T09:33:38;27.00;35.20
7366;DHT22;3723;52.220;8.792;2022-09-03T09:36:12;27.00;34.90
7366;DHT22;3723;52.220;8.792;2022-09-03T09:38:42;27.20;35.10
7366;DHT22;3723;52.220;8.792;2022-09-03T09:41:11;27.20;34.20
7366;DHT22;3723;52.220;8.792;2022-09-03T09:43:39;27.30;34.00
7366;DHT22;3723;52.220;8.792;2022-09-03T09:46:11;27.30;33.10
7366;DHT22;3723;52.220;8.792;2022-09-03T09:48:47;27.20;32.10
7366;DHT22;3723;52.220;8.792;2022-09-03T09:51:20;27.00;30.20
7366;DHT22;3723;52.220;8.792;2022-09-03T09:53:58;27.00;30.00
7366;DHT22;3723;52.220;8.792;2022-09-03T09:56:25;27.20;31.30
7366;DHT22;3723;52.220;8.792;2022-09-03T09:59:01;27.30;31.70
7366;DHT22;3723;52.220;8.792;2022-09-03T10:01:28;27.50;38.80
7366;DHT22;3723;52.220;8.792;2022-09-03T10:03:59;27.50;31.70
7366;DHT22;3723;52.220;8.792;2022-09-03T10:06:30;27.80;31.70
7366;DHT22;3723;52.220;8.792;2022-09-03T10:09:16;28.00;32.70
7366;DHT22;3723;52.220;8.792;2022-09-03T10:11:47;27.80;30.10
7366;DHT22;3723;52.220;8.792;2022-09-03T10:14:21;27.60;29.20
7366;DHT22;3723;52.220;8.792;2022-09-03T10:16:54;27.80;30.60
7366;DHT22;3723;52.220;8.792;2022-09-03T10:19:27;28.20;31.20
7366;DHT22;3723;52.220;8.792;2022-09-03T10:22:06;28.20;31.90
7366;DHT22;3723;52.220;8.792;2022-09-03T10:24:47;28.40;32.20
7366;DHT22;3723;52.220;8.792;2022-09-03T10:27:17;28.50;31.00
7366;DHT22;3723;52.220;8.792;2022-09-03T10:29:47;28.40;30.90
7366;DHT22;3723;52.220;8.792;2022-09-03T10:32:24;28.40;30.50
7366;DHT22;3723;52.220;8.792;2022-09-03T10:35:16;28.60;30.30
7366;DHT22;3723;52.220;8.792;2022-09-03T10:37:52;28.50;30.00
7366;DHT22;3723;52.220;8.792;2022-09-03T10:40:27;28.80;31.10
7366;DHT22;3723;52.220;8.792;2022-09-03T10:43:13;29.10;32.30
7366;DHT22;3723;52.220;8.792;2022-09-03T10:45:48;29.40;32.80
7366;DHT22;3723;52.220;8.792;2022-09-03T10:48:36;29.60;34.20
7366;DHT22;3723;52.220;8.792;2022-09-03T10:51:13;29.90;34.80
7366;DHT22;3723;52.220;8.792;2022-09-03T10:54:04;29.70;32.70
7366;DHT22;3723;52.220;8.792;2022-09-03T10:56:44;29.50;30.00
7366;DHT22;3723;52.220;8.792;2022-09-03T10:59:44;29.30;29.90
7366;DHT22;3723;52.220;8.792;2022-09-03T11:05:54;29.30;28.70
7366;DHT22;3723;52.220;8.792;2022-09-03T11:08:55;29.30;28.00
7366;DHT22;3723;52.220;8.792;2022-09-03T11:11:51;29.30;27.60
7366;DHT22;3723;52.220;8.792;2022-09-03T11:14:39;29.00;25.20
7366;DHT22;3723;52.220;8.792;2022-09-03T11:17:18;29.10;25.40
7366;DHT22;3723;52.220;8.792;2022-09-03T11:20:09;29.30;26.30
7366;DHT22;3723;52.220;8.792;2022-09-03T11:22:49;29.50;27.10
7366;DHT22;3723;52.220;8.792;2022-09-03T11:26:04;29.80;27.80
7366;DHT22;3723;52.220;8.792;2022-09-03T11:28:22;30.10;29.10
7366;DHT22;3723;52.220;8.792;2022-09-03T11:31:08;30.30;28.30
7366;DHT22;3723;52.220;8.792;2022-09-03T11:34:25;30.50;29.60
7366;DHT22;3723;52.220;8.792;2022-09-03T11:37:19;31.00;31.00
7366;DHT22;3723;52.220;8.792;2022-09-03T11:40:12;31.00;41.90
7366;DHT22;3723;52.220;8.792;2022-09-03T11:45:46;30.70;27.80
7366;DHT22;3723;52.220;8.792;2022-09-03T11:48:18;31.00;29.20
7366;DHT22;3723;52.220;8.792;2022-09-03T11:50:54;31.00;28.30
7366;DHT22;3723;52.220;8.792;2022-09-03T11:53:34;31.20;28.70
7366;DHT22;3723;52.220;8.792;2022-09-03T11:56:17;31.80;32.10
7366;DHT22;3723;52.220;8.792;2022-09-03T12:02:19;31.80;27.90
7366;DHT22;3723;52.220;8.792;2022-09-03T12:05:06;31.80;29.20
7366;DHT22;3723;52.220;8.792;2022-09-03T12:07:55;32.00;27.20
7366;DHT22;3723;52.220;8.792;2022-09-03T12:10:32;32.20;27.80
7366;DHT22;3723;52.220;8.792;2022-09-03T12:13:15;32.90;30.30
7366;DHT22;3723;52.220;8.792;2022-09-03T12:19:01;32.80;27.80
7366;DHT22;3723;52.220;8.792;2022-09-03T12:21:29;32.40;26.30
7366;DHT22;3723;52.220;8.792;2022-09-03T12:23:57;32.70;27.20
7366;DHT22;3723;52.220;8.792;2022-09-03T12:26:27;33.00;27.60
7366;DHT22;3723;52.220;8.792;2022-09-03T12:28:59;33.10;27.80
7366;DHT22;3723;52.220;8.792;2022-09-03T12:31:28;33.50;28.20
7366;DHT22;3723;52.220;8.792;2022-09-03T12:34:00;34.10;29.40
7366;DHT22;3723;52.220;8.792;2022-09-03T12:36:36;33.70;28.30
7366;DHT22;3723;52.220;8.792;2022-09-03T12:39:07;33.30;25.70
7366;DHT22;3723;52.220;8.792;2022-09-03T12:41:34;33.20;24.10
7366;DHT22;3723;52.220;8.792;2022-09-03T12:44:02;33.00;22.80
7366;DHT22;3723;52.220;8.792;2022-09-03T12:46:31;33.30;33.60
7366;DHT22;3723;52.220;8.792;2022-09-03T12:49:03;33.70;24.70
7366;DHT22;3723;52.220;8.792;2022-09-03T12:51:43;33.60;23.90
7366;DHT22;3723;52.220;8.792;2022-09-03T12:54:21;33.20;22.40
7366;DHT22;3723;52.220;8.792;2022-09-03T12:56:53;33.20;21.00
7366;DHT22;3723;52.220;8.792;2022-09-03T12:59:21;33.70;23.30
7366;DHT22;3723;52.220;8.792;2022-09-03T13:01:56;34.00;23.50
7366;DHT22;3723;52.220;8.792;2022-09-03T13:04:27;33.80;22.10
7366;DHT22;3723;52.220;8.792;2022-09-03T13:06:59;33.70;21.70
7366;DHT22;3723;52.220;8.792;2022-09-03T13:09:42;34.20;23.00
7366;DHT22;3723;52.220;8.792;2022-09-03T13:12:28;33.70;20.30
7366;DHT22;3723;52.220;8.792;2022-09-03T13:15:03;32.60;15.80
7366;DHT22;3723;52.220;8.792;2022-09-03T13:18:16;31.00;8.20
7366;DHT22;3723;52.220;8.792;2022-09-03T13:23:40;29.40;2.50
7366;DHT22;3723;52.220;8.792;2022-09-03T13:26:22;29.20;2.10
7366;DHT22;3723;52.220;8.792;2022-09-03T13:29:23;29.20;2.50
7366;DHT22;3723;52.220;8.792;2022-09-03T13:31:59;29.40;3.00
7366;DHT22;3723;52.220;8.792;2022-09-03T13:34:31;30.10;7.20
7366;DHT22;3723;52.220;8.792;2022-09-03T13:37:11;30.40;8.60
7366;DHT22;3723;52.220;8.792;2022-09-03T13:39:51;30.50;8.70
7366;DHT22;3723;52.220;8.792;2022-09-03T13:43:04;31.30;12.50
7366;DHT22;3723;52.220;8.792;2022-09-03T13:45:45;31.10;11.80
7366;DHT22;3723;52.220;8.792;2022-09-03T13:48:21;30.60;9.50
7366;DHT22;3723;52.220;8.792;2022-09-03T13:51:14;30.10;6.80
7366;DHT22;3723;52.220;8.792;2022-09-03T13:53:54;29.90;5.40
7366;DHT22;3723;52.220;8.792;2022-09-03T13:56:34;29.40;3.80
7366;DHT22;3723;52.220;8.792;2022-09-03T13:59:06;29.20;4.20
7366;DHT22;3723;52.220;8.792;2022-09-03T14:01:57;29.00;2.50
7366;DHT22;3723;52.220;8.792;2022-09-03T14:04:32;28.80;2.40
7366;DHT22;3723;52.220;8.792;2022-09-03T14:07:03;28.50;2.00
7366;DHT22;3723;52.220;8.792;2022-09-03T14:09:50;28.40;2.20
7366;DHT22;3723;52.220;8.792;2022-09-03T14:12:43;28.10;1.00
7366;DHT22;3723;52.220;8.792;2022-09-03T14:15:21;27.80;1.00
7366;DHT22;3723;52.220;8.792;2022-09-03T14:17:58;27.50;1.00
7366;DHT22;3723;52.220;8.792;2022-09-03T14:20:28;27.40;1.00
7366;DHT22;3723;52.220;8.792;2022-09-03T14:23:03;27.40;1.00
7366;DHT22;3723;52.220;8.792;2022-09-03T14:25:32;28.00;1.30
7366;DHT22;3723;52.220;8.792;2022-09-03T14:28:34;29.10;5.70
7366;DHT22;3723;52.220;8.792;2022-09-03T14:31:11;29.50;7.30
7366;DHT22;3723;52.220;8.792;2022-09-03T14:33:49;29.10;5.70
7366;DHT22;3723;52.220;8.792;2022-09-03T14:36:25;28.80;4.40
7366;DHT22;3723;52.220;8.792;2022-09-03T14:39:08;28.50;2.90
7366;DHT22;3723;52.220;8.792;2022-09-03T14:45:14;29.60;8.00
7366;DHT22;3723;52.220;8.792;2022-09-03T14:50:45;30.50;11.10
7366;DHT22;3723;52.220;8.792;2022-09-03T14:56:43;30.70;10.70
7366;DHT22;3723;52.220;8.792;2022-09-03T14:59:32;30.30;8.60
7366;DHT22;3723;52.220;8.792;2022-09-03T15:02:37;30.40;8.40
7366;DHT22;3723;52.220;8.792;2022-09-03T15:05:11;30.60;9.60
7366;DHT22;3723;52.220;8.792;2022-09-03T15:07:44;30.70;9.80
7366;DHT22;3723;52.220;8.792;2022-09-03T15:10:20;30.70;8.90
7366;DHT22;3723;52.220;8.792;2022-09-03T15:13:15;30.80;8.90
7366;DHT22;3723;52.220;8.792;2022-09-03T15:16:02;31.00;9.70
7366;DHT22;3723;52.220;8.792;2022-09-03T15:18:54;30.70;7.80
7366;DHT22;3723;52.220;8.792;2022-09-03T15:21:44;30.60;7.40
7366;DHT22;3723;52.220;8.792;2022-09-03T15:24:23;30.40;5.60
7366;DHT22;3723;52.220;8.792;2022-09-03T15:27:00;30.10;3.60
7366;DHT22;3723;52.220;8.792;2022-09-03T15:29:41;30.00;3.40
7366;DHT22;3723;52.220;8.792;2022-09-03T15:32:24;30.10;4.10
7366;DHT22;3723;52.220;8.792;2022-09-03T15:35:04;30.30;4.90
7366;DHT22;3723;52.220;8.792;2022-09-03T15:37:42;30.10;3.40
7366;DHT22;3723;52.220;8.792;2022-09-03T15:40:24;30.10;4.20
7366;DHT22;3723;52.220;8.792;2022-09-03T15:43:04;30.10;3.90
7366;DHT22;3723;52.220;8.792;2022-09-03T15:45:37;29.90;3.90
7366;DHT22;3723;52.220;8.792;2022-09-03T15:48:16;29.60;2.30
7366;DHT22;3723;52.220;8.792;2022-09-03T15:51:07;29.20;1.00
7366;DHT22;3723;52.220;8.792;2022-09-03T15:54:16;29.00;1.00
7366;DHT22;3723;52.220;8.792;2022-09-03T15:57:08;29.00;1.00
7366;DHT22;3723;52.220;8.792;2022-09-03T15:59:40;28.60;1.00
7366;DHT22;3723;52.220;8.792;2022-09-03T16:02:15;28.00;1.00
7366;DHT22;3723;52.220;8.792;2022-09-03T16:04:59;27.20;1.00
7366;DHT22;3723;52.220;8.792;2022-09-03T16:08:03;26.60;1.00
7366;DHT22;3723;52.220;8.792;2022-09-03T16:10:40;26.60;1.00
7366;DHT22;3723;52.220;8.792;2022-09-03T16:13:30;27.00;1.00
7366;DHT22;3723;52.220;8.792;2022-09-03T16:16:07;26.90;1.00
7366;DHT22;3723;52.220;8.792;2022-09-03T16:18:59;26.70;1.00
7366;DHT22;3723;52.220;8.792;2022-09-03T16:21:31;26.70;1.00
7366;DHT22;3723;52.220;8.792;2022-09-03T16:24:08;26.70;1.00
7366;DHT22;3723;52.220;8.792;2022-09-03T16:26:43;26.50;1.00
7366;DHT22;3723;52.220;8.792;2022-09-03T16:29:15;26.20;1.00
7366;DHT22;3723;52.220;8.792;2022-09-03T16:38:33;25.00;1.00
7366;DHT22;3723;52.220;8.792;2022-09-03T16:41:13;24.70;1.00
7366;DHT22;3723;52.220;8.792;2022-09-03T16:43:58;24.60;1.00
7366;DHT22;3723;52.220;8.792;2022-09-03T16:46:34;24.40;1.00
7366;DHT22;3723;52.220;8.792;2022-09-03T16:49:29;24.30;1.00
7366;DHT22;3723;52.220;8.792;2022-09-03T16:52:07;24.40;1.00
7366;DHT22;3723;52.220;8.792;2022-09-03T16:54:49;24.70;1.00
7366;DHT22;3723;52.220;8.792;2022-09-03T16:57:30;24.80;1.00
7366;DHT22;3723;52.220;8.792;2022-09-03T17:00:19;24.70;1.00
7366;DHT22;3723;52.220;8.792;2022-09-03T17:03:03;24.50;1.00
7366;DHT22;3723;52.220;8.792;2022-09-03T17:09:02;24.10;1.00
7366;DHT22;3723;52.220;8.792;2022-09-03T17:12:00;23.80;1.00
7366;DHT22;3723;52.220;8.792;2022-09-03T17:14:55;23.50;1.00
7366;DHT22;3723;52.220;8.792;2022-09-03T17:17:46;23.30;1.00
7366;DHT22;3723;52.220;8.792;2022-09-03T17:20:20;23.20;1.00
7366;DHT22;3723;52.220;8.792;2022-09-03T17:22:59;23.00;1.00
7366;DHT22;3723;52.220;8.792;2022-09-03T17:25:35;22.90;1.00
7366;DHT22;3723;52.220;8.792;2022-09-03T17:28:11;22.80;1.00
7366;DHT22;3723;52.220;8.792;2022-09-03T17:31:08;22.60;1.00
7366;DHT22;3723;52.220;8.792;2022-09-03T17:33:56;22.50;1.00
7366;DHT22;3723;52.220;8.792;2022-09-03T17:36:29;22.40;1.00